Time;durP1;ratioP1;P1;durP2;ratioP2;P2;SDS_P1;SDS_P2;PMS_P1;PMS_P2;Temp;Humidity;BMP_temperature;BMP_pressure;BME280_temperature;BME280_humidity;BME280_pressure;Samples;Min_cycle;Max_cycle;Signal;HPM_P1;HPM_P2
2023/05/18 00:00:52;;;;;;;3.95;1.73;;;;;;;;;;5052457;28;20465;-72
2023/05/18 00:03:18;;;;;;;4.68;1.63;;;;;;;;;;5051926;28;20061;-70
2023/05/18 00:05:44;;;;;;;4.53;1.33;;;;;;;;;;5051785;28;20067;-70
2023/05/18 00:08:09;;;;;;;6.63;1.88;;;;;;;;;;5052459;28;20538;-71
2023/05/18 00:10:35;;;;;;;5.13;1.70;;;;;;;;;;5052676;28;20078;-71
2023/05/18 00:13:01;;;;;;;8.95;2.75;;;;;;;;;;5052670;28;20037;-71
2023/05/18 00:15:27;;;;;;;4.28;1.63;;;;;;;;;;5051370;28;20040;-69
2023/05/18 00:17:53;;;;;;;9.10;1.80;;;;;;;;;;5051820;28;20148;-69
2023/05/18 00:20:20;;;;;;;3.75;1.38;;;;;;;;;;5051346;28;20056;-71
2023/05/18 00:22:47;;;;;;;6.40;1.50;;;;;;;;;;5042429;28;20033;-70
2023/05/18 00:25:12;;;;;;;3.72;1.60;;;;;;;;;;5051172;28;20175;-71
2023/05/18 00:27:38;;;;;;;4.75;1.77;;;;;;;;;;5049355;28;20115;-71
2023/05/18 00:30:05;;;;;;;4.93;1.70;;;;;;;;;;5065283;28;20039;-71
2023/05/18 00:32:30;;;;;;;3.38;1.77;;;;;;;;;;5036896;28;20028;-71
2023/05/18 00:34:56;;;;;;;3.70;1.60;;;;;;;;;;5041463;28;20036;-70
2023/05/18 00:37:22;;;;;;;4.15;1.75;;;;;;;;;;5051744;28;20104;-71
2023/05/18 00:39:47;;;;;;;7.22;2.13;;;;;;;;;;5050951;28;20033;-70
2023/05/18 00:42:13;;;;;;;4.65;1.70;;;;;;;;;;5050263;28;20056;-70
2023/05/18 00:44:39;;;;;;;4.40;1.92;;;;;;;;;;5051706;28;20495;-70
2023/05/18 00:47:05;;;;;;;3.85;1.50;;;;;;;;;;5051468;28;20079;-71
2023/05/18 00:49:31;;;;;;;5.20;1.67;;;;;;;;;;5051515;28;20483;-70
2023/05/18 00:51:56;;;;;;;4.57;2.20;;;;;;;;;;5051273;28;20043;-70
2023/05/18 00:54:24;;;;;;;3.95;1.73;;;;;;;;;;5044688;28;20572;-71
2023/05/18 00:56:50;;;;;;;4.05;1.42;;;;;;;;;;5047215;28;20087;-70
2023/05/18 00:59:17;;;;;;;4.95;1.80;;;;;;;;;;5043345;28;20029;-71
2023/05/18 01:01:45;;;;;;;3.05;1.60;;;;;;;;;;5051576;28;20031;-69
2023/05/18 01:04:14;;;;;;;3.25;1.60;;;;;;;;;;5042034;28;20033;-71
2023/05/18 01:06:41;;;;;;;3.58;1.80;;;;;;;;;;5048511;28;20044;-71
2023/05/18 01:09:10;;;;;;;3.55;1.80;;;;;;;;;;5050377;28;20104;-71
2023/05/18 01:11:58;;;;;;;3.50;1.63;;;;;;;;;;5051159;28;20120;-70
2023/05/18 01:14:46;;;;;;;4.85;2.20;;;;;;;;;;5049306;28;20446;-71
2023/05/18 01:17:15;;;;;;;5.25;2.15;;;;;;;;;;5070982;28;20048;-70
2023/05/18 01:20:19;;;;;;;3.83;2.17;;;;;;;;;;5042642;28;20033;-71
2023/05/18 01:23:13;;;;;;;7.45;2.40;;;;;;;;;;5020165;28;20040;-70
2023/05/18 01:25:49;;;;;;;6.68;2.70;;;;;;;;;;5050489;28;20491;-69
2023/05/18 01:28:19;;;;;;;8.80;2.40;;;;;;;;;;5050912;28;20572;-70
2023/05/18 01:30:45;;;;;;;4.78;2.55;;;;;;;;;;5047823;28;20033;-71
2023/05/18 01:33:13;;;;;;;5.43;2.38;;;;;;;;;;5065722;28;20021;-70
2023/05/18 01:35:49;;;;;;;4.07;2.22;;;;;;;;;;5042418;28;20095;-70
2023/05/18 01:38:21;;;;;;;7.22;2.60;;;;;;;;;;5043853;28;20525;-71
2023/05/18 01:41:11;;;;;;;6.43;2.88;;;;;;;;;;5047549;28;20375;-70
2023/05/18 01:44:04;;;;;;;11.57;2.85;;;;;;;;;;5061910;28;20159;-69
2023/05/18 01:46:35;;;;;;;5.13;2.38;;;;;;;;;;5029279;28;20048;-71
2023/05/18 01:49:27;;;;;;;6.35;2.50;;;;;;;;;;5030700;28;20514;-71
2023/05/18 01:51:57;;;;;;;6.13;2.30;;;;;;;;;;5030256;28;20034;-69
2023/05/18 01:54:23;;;;;;;5.97;2.35;;;;;;;;;;5031692;28;20025;-70
2023/05/18 01:56:53;;;;;;;4.57;2.25;;;;;;;;;;5032041;28;20045;-69
2023/05/18 01:59:19;;;;;;;3.30;2.20;;;;;;;;;;5034372;28;20108;-70
2023/05/18 02:01:45;;;;;;;3.80;2.15;;;;;;;;;;5042860;28;20070;-71
2023/05/18 02:04:10;;;;;;;5.45;2.50;;;;;;;;;;5030480;28;20057;-70
2023/05/18 02:06:36;;;;;;;3.45;2.10;;;;;;;;;;5030527;28;20038;-71
2023/05/18 02:09:04;;;;;;;3.92;2.15;;;;;;;;;;5030649;28;20025;-71
2023/05/18 02:11:30;;;;;;;4.68;2.00;;;;;;;;;;5030624;28;20029;-70
2023/05/18 02:13:56;;;;;;;3.50;1.90;;;;;;;;;;5030386;28;20056;-70
2023/05/18 02:16:22;;;;;;;6.07;2.35;;;;;;;;;;5044182;28;20033;-70
2023/05/18 02:18:51;;;;;;;8.02;2.78;;;;;;;;;;5047248;28;20021;-70
2023/05/18 02:21:17;;;;;;;6.70;2.92;;;;;;;;;;5030456;28;20025;-70
2023/05/18 02:23:43;;;;;;;9.88;3.50;;;;;;;;;;5030508;28;20235;-70
2023/05/18 02:26:09;;;;;;;5.45;2.90;;;;;;;;;;5030632;28;20114;-71
2023/05/18 02:28:38;;;;;;;6.93;2.88;;;;;;;;;;5034474;28;20029;-70
2023/05/18 02:31:10;;;;;;;5.30;2.90;;;;;;;;;;5035740;28;20160;-71
2023/05/18 02:33:39;;;;;;;5.22;2.50;;;;;;;;;;5034228;28;20041;-71
2023/05/18 02:36:17;;;;;;;4.55;2.70;;;;;;;;;;5035642;28;20091;-71
2023/05/18 02:38:43;;;;;;;7.75;3.13;;;;;;;;;;5034520;28;20061;-70
2023/05/18 02:41:10;;;;;;;6.75;3.10;;;;;;;;;;5043661;28;20403;-70
2023/05/18 02:43:37;;;;;;;9.90;3.20;;;;;;;;;;5055259;28;20043;-71
2023/05/18 02:46:03;;;;;;;9.95;2.92;;;;;;;;;;5055626;28;20021;-70
2023/05/18 02:48:29;;;;;;;9.60;2.90;;;;;;;;;;5054134;28;20025;-69
2023/05/18 02:50:56;;;;;;;5.75;3.10;;;;;;;;;;5042948;28;20483;-72
2023/05/18 02:53:22;;;;;;;6.05;2.65;;;;;;;;;;5033918;28;20116;-71
2023/05/18 02:55:48;;;;;;;5.05;3.08;;;;;;;;;;5042148;28;20560;-71
2023/05/18 02:58:21;;;;;;;4.78;2.60;;;;;;;;;;5044563;28;20068;-71
2023/05/18 03:01:13;;;;;;;5.05;3.42;;;;;;;;;;5045017;28;20033;-70
2023/05/18 03:03:46;;;;;;;7.72;3.05;;;;;;;;;;5044911;28;20407;-70
2023/05/18 03:06:12;;;;;;;6.10;3.20;;;;;;;;;;5053580;28;20435;-70
2023/05/18 03:08:40;;;;;;;6.22;2.80;;;;;;;;;;5053548;28;20029;-70
2023/05/18 03:11:08;;;;;;;10.95;3.30;;;;;;;;;;5053247;28;20036;-70
2023/05/18 03:13:33;;;;;;;4.15;2.90;;;;;;;;;;5053143;28;20032;-70
2023/05/18 03:15:59;;;;;;;9.05;3.03;;;;;;;;;;5053111;28;20186;-71
2023/05/18 03:18:26;;;;;;;6.60;2.95;;;;;;;;;;5053116;28;20120;-70
2023/05/18 03:20:52;;;;;;;6.03;3.10;;;;;;;;;;5053158;28;20065;-71
2023/05/18 03:23:19;;;;;;;6.85;3.20;;;;;;;;;;5049749;28;20049;-70
2023/05/18 03:25:45;;;;;;;6.25;3.33;;;;;;;;;;5032938;28;20403;-70
2023/05/18 03:28:11;;;;;;;11.95;3.42;;;;;;;;;;5049785;28;20026;-70
2023/05/18 03:30:38;;;;;;;9.77;3.53;;;;;;;;;;5037868;28;20067;-70
2023/05/18 03:33:04;;;;;;;11.18;3.65;;;;;;;;;;5046352;28;20055;-70
2023/05/18 03:35:31;;;;;;;8.27;3.35;;;;;;;;;;5038121;28;20045;-70
2023/05/18 03:37:57;;;;;;;18.15;4.32;;;;;;;;;;5060427;28;20028;-70
2023/05/18 03:40:23;;;;;;;8.18;3.47;;;;;;;;;;5065024;28;20029;-69
2023/05/18 03:42:49;;;;;;;12.15;4.22;;;;;;;;;;5044757;28;20392;-71
2023/05/18 03:45:17;;;;;;;17.50;4.85;;;;;;;;;;5051451;28;20036;-69
2023/05/18 03:47:42;;;;;;;10.38;3.88;;;;;;;;;;5035643;28;20048;-71
2023/05/18 03:50:09;;;;;;;9.95;2.90;;;;;;;;;;5034238;28;20029;-71
2023/05/18 03:52:35;;;;;;;6.63;3.40;;;;;;;;;;5062094;28;20024;-70
2023/05/18 03:55:02;;;;;;;8.55;3.50;;;;;;;;;;5044408;28;20402;-71
2023/05/18 03:57:32;;;;;;;5.78;2.85;;;;;;;;;;5053102;28;20073;-70
2023/05/18 03:59:59;;;;;;;4.13;2.60;;;;;;;;;;5043420;28;20033;-71
2023/05/18 04:02:25;;;;;;;9.63;3.55;;;;;;;;;;5051877;28;20031;-69
2023/05/18 04:04:53;;;;;;;6.47;3.40;;;;;;;;;;5051996;28;20059;-69
2023/05/18 04:07:23;;;;;;;16.75;3.85;;;;;;;;;;5052778;28;20028;-70
2023/05/18 04:09:50;;;;;;;13.15;3.70;;;;;;;;;;5051203;28;20125;-70
2023/05/18 04:12:17;;;;;;;9.95;3.85;;;;;;;;;;5044701;28;20041;-71
2023/05/18 04:14:48;;;;;;;13.60;4.07;;;;;;;;;;5059641;28;20438;-71
2023/05/18 04:17:20;;;;;;;10.63;3.50;;;;;;;;;;5052628;28;20059;-71
2023/05/18 04:19:47;;;;;;;17.30;3.95;;;;;;;;;;5052520;28;20047;-71
2023/05/18 04:22:15;;;;;;;6.28;3.22;;;;;;;;;;5067809;28;20443;-71
2023/05/18 04:24:41;;;;;;;7.03;3.05;;;;;;;;;;5052519;28;20063;-71
2023/05/18 04:27:08;;;;;;;8.27;3.40;;;;;;;;;;5051581;28;20031;-69
2023/05/18 04:29:37;;;;;;;15.50;3.90;;;;;;;;;;5051609;28;20705;-71
2023/05/18 04:32:07;;;;;;;8.60;3.40;;;;;;;;;;5050761;28;20111;-71
2023/05/18 04:34:36;;;;;;;19.55;4.25;;;;;;;;;;5051427;28;20036;-70
2023/05/18 04:37:05;;;;;;;10.63;3.50;;;;;;;;;;5049761;28;20611;-70
2023/05/18 04:39:33;;;;;;;10.60;3.35;;;;;;;;;;5046538;28;20083;-71
2023/05/18 04:42:03;;;;;;;11.30;2.83;;;;;;;;;;5044758;28;20029;-72
2023/05/18 04:44:32;;;;;;;22.13;4.90;;;;;;;;;;5076951;28;20068;-72
2023/05/18 04:46:59;;;;;;;10.05;3.13;;;;;;;;;;5050839;28;20203;-72
2023/05/18 04:49:27;;;;;;;9.65;3.40;;;;;;;;;;5050945;28;20029;-72
2023/05/18 04:51:58;;;;;;;15.15;4.10;;;;;;;;;;5039251;28;20032;-72
2023/05/18 04:54:27;;;;;;;14.38;4.18;;;;;;;;;;5042466;28;20029;-71
2023/05/18 04:56:53;;;;;;;11.43;4.15;;;;;;;;;;5050784;28;20025;-72
2023/05/18 04:59:18;;;;;;;9.07;3.67;;;;;;;;;;5052283;28;20092;-72
2023/05/18 05:01:45;;;;;;;12.35;3.95;;;;;;;;;;5052377;28;20058;-72
2023/05/18 05:04:12;;;;;;;12.18;3.50;;;;;;;;;;5045210;28;20053;-70
2023/05/18 05:06:38;;;;;;;8.23;3.28;;;;;;;;;;5076419;28;20479;-71
2023/05/18 05:09:06;;;;;;;9.73;3.55;;;;;;;;;;5043542;28;20029;-72
2023/05/18 05:11:32;;;;;;;6.32;3.47;;;;;;;;;;5041890;28;20128;-72
2023/05/18 05:13:58;;;;;;;8.52;3.63;;;;;;;;;;5048479;28;20455;-71
2023/05/18 05:16:24;;;;;;;17.67;4.57;;;;;;;;;;5047395;28;20060;-72
2023/05/18 05:18:50;;;;;;;12.02;4.20;;;;;;;;;;5048044;28;20064;-71
2023/05/18 05:21:16;;;;;;;15.90;4.57;;;;;;;;;;5043625;28;20024;-71
2023/05/18 05:23:41;;;;;;;7.38;3.63;;;;;;;;;;5047260;28;20444;-71
2023/05/18 05:26:09;;;;;;;12.27;3.95;;;;;;;;;;5049517;28;20020;-71
2023/05/18 05:28:35;;;;;;;6.75;3.72;;;;;;;;;;5036628;28;20490;-71
2023/05/18 05:31:01;;;;;;;7.45;3.60;;;;;;;;;;5026334;28;20037;-71
2023/05/18 05:33:27;;;;;;;17.20;4.90;;;;;;;;;;5046860;28;20360;-71
2023/05/18 05:35:53;;;;;;;14.13;4.47;;;;;;;;;;5046442;28;20025;-70
2023/05/18 05:38:19;;;;;;;9.68;3.92;;;;;;;;;;5031454;28;20076;-72
2023/05/18 05:40:44;;;;;;;7.70;3.53;;;;;;;;;;5046407;28;20059;-71
2023/05/18 05:43:11;;;;;;;7.57;3.30;;;;;;;;;;5031924;28;20029;-71
2023/05/18 05:45:38;;;;;;;8.68;3.90;;;;;;;;;;5028296;28;20033;-70
2023/05/18 05:48:06;;;;;;;8.35;3.42;;;;;;;;;;5047776;28;20112;-72
2023/05/18 05:50:33;;;;;;;17.63;5.40;;;;;;;;;;5039228;28;20429;-72
2023/05/18 05:53:01;;;;;;;10.52;3.70;;;;;;;;;;5046482;28;20045;-73
2023/05/18 05:55:29;;;;;;;10.80;3.47;;;;;;;;;;5041937;28;20056;-71
2023/05/18 05:57:55;;;;;;;9.07;3.90;;;;;;;;;;5044997;28;20498;-72
2023/05/18 06:00:22;;;;;;;13.00;3.70;;;;;;;;;;5049274;28;20410;-71
2023/05/18 06:02:55;;;;;;;9.95;3.38;;;;;;;;;;5039533;28;20041;-71
2023/05/18 06:05:29;;;;;;;8.40;3.80;;;;;;;;;;5055718;28;20531;-73
2023/05/18 06:07:56;;;;;;;7.50;2.92;;;;;;;;;;5056096;28;20136;-71
2023/05/18 06:10:22;;;;;;;5.68;3.05;;;;;;;;;;5071317;28;20626;-73
2023/05/18 06:12:48;;;;;;;8.88;3.30;;;;;;;;;;5052741;28;20555;-73
2023/05/18 06:15:14;;;;;;;5.55;2.45;;;;;;;;;;5036632;28;20171;-72
2023/05/18 06:17:42;;;;;;;9.93;3.40;;;;;;;;;;5075004;28;20064;-73
2023/05/18 06:20:10;;;;;;;5.63;3.03;;;;;;;;;;5055651;28;20095;-73
2023/05/18 06:22:36;;;;;;;8.70;2.80;;;;;;;;;;5055258;28;20040;-72
2023/05/18 06:25:21;;;;;;;7.90;3.17;;;;;;;;;;5056431;28;20050;-71
2023/05/18 06:28:02;;;;;;;4.85;2.40;;;;;;;;;;5046878;28;20033;-73
2023/05/18 06:30:38;;;;;;;7.38;2.83;;;;;;;;;;5041095;28;20032;-74
2023/05/18 06:33:14;;;;;;;9.07;2.60;;;;;;;;;;5054622;28;20025;-71
2023/05/18 06:35:40;;;;;;;7.32;2.85;;;;;;;;;;5050748;28;20040;-72
2023/05/18 06:38:07;;;;;;;12.55;3.58;;;;;;;;;;5053522;28;20039;-72
2023/05/18 06:40:33;;;;;;;8.77;2.58;;;;;;;;;;5044791;28;20120;-71
2023/05/18 06:42:58;;;;;;;7.53;2.72;;;;;;;;;;5047449;28;20156;-72
2023/05/18 06:45:40;;;;;;;10.57;3.33;;;;;;;;;;5049906;28;20505;-72
2023/05/18 06:48:11;;;;;;;10.25;3.00;;;;;;;;;;5076700;28;20111;-73
2023/05/18 06:50:38;;;;;;;6.28;2.78;;;;;;;;;;5050732;28;20418;-71
2023/05/18 06:53:05;;;;;;;8.35;3.10;;;;;;;;;;5046206;28;20079;-72
2023/05/18 06:55:31;;;;;;;5.68;2.55;;;;;;;;;;5053343;28;20056;-71
2023/05/18 06:57:57;;;;;;;5.68;3.00;;;;;;;;;;5048438;28;20475;-72
2023/05/18 07:00:23;;;;;;;6.43;2.55;;;;;;;;;;5039821;28;20495;-71
2023/05/18 07:02:49;;;;;;;8.48;2.88;;;;;;;;;;5046963;28;20390;-71
2023/05/18 07:05:17;;;;;;;7.53;3.10;;;;;;;;;;5052744;28;20049;-71
2023/05/18 07:07:42;;;;;;;7.00;3.05;;;;;;;;;;5053672;28;20119;-73
2023/05/18 07:10:10;;;;;;;12.60;3.33;;;;;;;;;;5053672;28;20102;-72
2023/05/18 07:12:37;;;;;;;6.95;3.25;;;;;;;;;;5050047;28;20052;-72
2023/05/18 07:15:03;;;;;;;6.70;2.67;;;;;;;;;;5048760;28;20033;-72
2023/05/18 07:17:29;;;;;;;5.88;3.00;;;;;;;;;;5068299;28;20108;-71
2023/05/18 07:19:55;;;;;;;5.57;2.10;;;;;;;;;;5053532;28;20035;-72
2023/05/18 07:22:21;;;;;;;6.40;2.80;;;;;;;;;;5052010;28;20505;-71
2023/05/18 07:24:47;;;;;;;4.18;2.30;;;;;;;;;;5052899;28;20510;-74
2023/05/18 07:27:13;;;;;;;4.97;2.05;;;;;;;;;;5052827;28;20064;-72
2023/05/18 07:29:38;;;;;;;5.97;2.67;;;;;;;;;;5053083;28;20032;-72
2023/05/18 07:32:04;;;;;;;6.50;2.42;;;;;;;;;;5051867;28;20029;-74
2023/05/18 07:34:30;;;;;;;5.70;2.20;;;;;;;;;;5059560;28;20029;-71
2023/05/18 07:36:57;;;;;;;4.32;2.08;;;;;;;;;;5047149;28;20024;-72
2023/05/18 07:39:27;;;;;;;4.32;2.13;;;;;;;;;;5045438;28;20367;-74
2023/05/18 07:41:54;;;;;;;7.00;2.00;;;;;;;;;;5045653;28;20128;-71
2023/05/18 07:44:20;;;;;;;4.65;2.40;;;;;;;;;;5041793;28;20400;-72
2023/05/18 07:46:45;;;;;;;5.85;2.70;;;;;;;;;;5049061;28;20032;-70
2023/05/18 07:49:12;;;;;;;8.48;2.33;;;;;;;;;;5052830;28;20041;-72
2023/05/18 07:51:38;;;;;;;4.78;2.05;;;;;;;;;;5052924;28;20025;-74
2023/05/18 07:54:04;;;;;;;4.45;1.95;;;;;;;;;;5047023;28;20028;-74
2023/05/18 07:56:30;;;;;;;5.95;2.00;;;;;;;;;;5050558;28;20040;-73
2023/05/18 07:58:56;;;;;;;8.32;2.00;;;;;;;;;;5044174;28;20126;-73
2023/05/18 08:01:26;;;;;;;11.43;2.30;;;;;;;;;;5052118;28;20494;-71
2023/05/18 08:03:53;;;;;;;5.60;2.00;;;;;;;;;;5052360;28;20487;-71
2023/05/18 08:06:19;;;;;;;15.02;2.50;;;;;;;;;;5044604;28;20025;-70
2023/05/18 08:08:45;;;;;;;8.90;2.72;;;;;;;;;;5051376;28;20370;-70
2023/05/18 08:11:11;;;;;;;7.85;2.08;;;;;;;;;;5067344;28;20033;-70
2023/05/18 08:13:37;;;;;;;6.63;1.83;;;;;;;;;;5050352;28;20123;-70
2023/05/18 08:16:03;;;;;;;6.22;1.92;;;;;;;;;;5046825;28;20495;-72
2023/05/18 08:18:29;;;;;;;6.90;2.22;;;;;;;;;;5048442;28;20110;-73
2023/05/18 08:20:55;;;;;;;3.38;1.80;;;;;;;;;;5050245;28;20032;-72
2023/05/18 08:23:23;;;;;;;6.38;2.00;;;;;;;;;;5051684;28;20033;-71
2023/05/18 08:25:49;;;;;;;7.45;2.03;;;;;;;;;;5066228;28;20029;-72
2023/05/18 08:28:15;;;;;;;4.97;1.75;;;;;;;;;;5048878;28;20413;-72
2023/05/18 08:30:41;;;;;;;5.38;1.83;;;;;;;;;;5041960;28;20390;-72
2023/05/18 08:33:08;;;;;;;6.28;1.95;;;;;;;;;;5033433;28;20179;-72
2023/05/18 08:35:33;;;;;;;3.95;2.08;;;;;;;;;;5042129;28;20094;-72
2023/05/18 08:38:00;;;;;;;6.35;2.00;;;;;;;;;;5044975;28;20034;-71
2023/05/18 08:40:32;;;;;;;5.85;2.08;;;;;;;;;;5044403;28;20031;-72
2023/05/18 08:43:07;;;;;;;7.90;2.03;;;;;;;;;;5043935;28;20033;-71
2023/05/18 08:45:45;;;;;;;6.22;1.60;;;;;;;;;;5037381;28;20033;-72
2023/05/18 08:48:13;;;;;;;3.92;1.77;;;;;;;;;;5046922;28;20029;-72
2023/05/18 08:50:41;;;;;;;3.70;1.77;;;;;;;;;;5043528;28;20486;-72
2023/05/18 08:53:09;;;;;;;2.95;1.60;;;;;;;;;;5042436;28;20045;-72
2023/05/18 08:55:36;;;;;;;3.58;1.65;;;;;;;;;;5041790;28;20564;-72
2023/05/18 08:58:06;;;;;;;6.72;2.13;;;;;;;;;;5050903;28;20414;-72
2023/05/18 09:00:32;;;;;;;4.22;1.95;;;;;;;;;;5065589;28;20086;-72
2023/05/18 09:03:00;;;;;;;7.68;2.03;;;;;;;;;;5050081;28;20628;-72
2023/05/18 09:05:26;;;;;;;4.85;1.80;;;;;;;;;;5047136;28;20025;-71
2023/05/18 09:07:53;;;;;;;5.65;2.08;;;;;;;;;;5049189;28;20386;-72
2023/05/18 09:10:21;;;;;;;4.55;1.77;;;;;;;;;;5049382;28;20076;-73
2023/05/18 09:12:48;;;;;;;4.53;1.85;;;;;;;;;;5049795;28;20025;-72
2023/05/18 09:15:16;;;;;;;7.70;1.98;;;;;;;;;;5050450;28;20174;-73
2023/05/18 09:17:42;;;;;;;4.40;2.00;;;;;;;;;;5050710;28;20093;-72
2023/05/18 09:20:09;;;;;;;8.55;2.85;;;;;;;;;;5050394;28;20471;-73
2023/05/18 09:22:35;;;;;;;7.38;2.72;;;;;;;;;;5047178;28;20021;-73
2023/05/18 09:25:07;;;;;;;6.82;2.17;;;;;;;;;;5046724;28;20048;-73
2023/05/18 09:27:32;;;;;;;6.78;2.40;;;;;;;;;;5050344;28;20475;-72
2023/05/18 09:29:58;;;;;;;5.43;2.17;;;;;;;;;;5043707;28;20043;-72
2023/05/18 09:32:24;;;;;;;8.90;4.10;;;;;;;;;;5042807;28;20044;-71
2023/05/18 09:34:52;;;;;;;6.13;2.30;;;;;;;;;;5049040;28;20463;-71
2023/05/18 09:37:19;;;;;;;5.57;1.98;;;;;;;;;;5042795;28;20119;-73
2023/05/18 09:39:57;;;;;;;7.07;2.10;;;;;;;;;;5041663;28;20040;-75
2023/05/18 09:42:43;;;;;;;4.72;1.80;;;;;;;;;;5049299;28;20056;-74
2023/05/18 09:45:19;;;;;;;8.25;2.55;;;;;;;;;;5049465;28;20037;-72
2023/05/18 09:47:45;;;;;;;4.82;2.28;;;;;;;;;;5049639;28;20045;-71
2023/05/18 09:50:11;;;;;;;4.88;2.60;;;;;;;;;;5050540;28;20031;-73
2023/05/18 09:52:44;;;;;;;8.05;2.25;;;;;;;;;;5048753;28;20048;-72
2023/05/18 09:55:14;;;;;;;7.05;2.50;;;;;;;;;;5049860;28;20048;-71
2023/05/18 09:57:49;;;;;;;7.72;2.30;;;;;;;;;;5043299;28;20044;-73
2023/05/18 10:00:18;;;;;;;7.38;2.25;;;;;;;;;;5049406;28;20049;-71
2023/05/18 10:02:50;;;;;;;4.38;1.83;;;;;;;;;;5049297;28;20025;-71
2023/05/18 10:05:22;;;;;;;;;;;;;;;;;;5049827;28;20478;-73
2023/05/18 10:07:50;;;;;;;4.20;2.05;;;;;;;;;;5059971;28;19928;-73
2023/05/18 10:10:24;;;;;;;9.00;2.20;;;;;;;;;;5032149;28;20487;-75
2023/05/18 10:12:51;;;;;;;4.75;2.10;;;;;;;;;;5047591;28;20033;-74
2023/05/18 10:15:19;;;;;;;8.00;2.47;;;;;;;;;;5044331;28;20025;-73
2023/05/18 10:17:46;;;;;;;6.63;2.15;;;;;;;;;;5041619;28;20037;-74
2023/05/18 10:20:18;;;;;;;8.80;2.72;;;;;;;;;;5048710;28;20383;-74
2023/05/18 10:22:45;;;;;;;5.85;2.30;;;;;;;;;;5042654;28;20065;-74
2023/05/18 10:25:25;;;;;;;6.20;2.13;;;;;;;;;;5044637;28;20029;-73
2023/05/18 10:27:55;;;;;;;7.10;2.38;;;;;;;;;;5043138;28;20099;-73
2023/05/18 10:30:25;;;;;;;5.40;2.35;;;;;;;;;;5042312;28;20506;-74
2023/05/18 10:32:51;;;;;;;4.75;2.00;;;;;;;;;;5042264;28;20044;-73
2023/05/18 10:35:18;;;;;;;4.93;2.38;;;;;;;;;;5045254;28;20021;-76
2023/05/18 10:37:53;;;;;;;8.57;2.88;;;;;;;;;;5046205;28;20028;-73
2023/05/18 10:40:20;;;;;;;7.43;2.20;;;;;;;;;;5034945;28;20045;-73
2023/05/18 10:42:47;;;;;;;5.78;2.30;;;;;;;;;;5045084;28;20049;-73
2023/05/18 10:45:14;;;;;;;4.18;2.25;;;;;;;;;;5041413;28;20439;-75
2023/05/18 10:47:42;;;;;;;6.75;2.33;;;;;;;;;;5043730;28;20032;-74
2023/05/18 10:50:08;;;;;;;6.00;2.33;;;;;;;;;;5048336;28;20094;-74
2023/05/18 10:52:38;;;;;;;10.68;2.50;;;;;;;;;;5047416;28;20021;-74
2023/05/18 10:55:05;;;;;;;8.15;2.47;;;;;;;;;;5046295;28;20472;-73
2023/05/18 10:57:37;;;;;;;5.90;2.42;;;;;;;;;;5049119;28;20033;-74
2023/05/18 11:00:06;;;;;;;10.57;2.33;;;;;;;;;;5051930;28;20083;-74
2023/05/18 11:02:36;;;;;;;6.78;2.53;;;;;;;;;;5054044;28;20493;-73
2023/05/18 11:05:05;;;;;;;8.73;4.10;;;;;;;;;;5054034;28;20087;-72
2023/05/18 11:07:32;;;;;;;7.95;2.72;;;;;;;;;;5053589;28;20559;-72
2023/05/18 11:10:01;;;;;;;5.03;2.40;;;;;;;;;;5053891;28;20036;-74
2023/05/18 11:12:32;;;;;;;3.92;2.20;;;;;;;;;;5054216;28;20148;-73
2023/05/18 11:15:00;;;;;;;7.85;2.38;;;;;;;;;;5054093;28;20040;-74
2023/05/18 11:17:29;;;;;;;6.63;2.38;;;;;;;;;;5058087;28;20032;-75
2023/05/18 11:20:07;;;;;;;4.82;2.40;;;;;;;;;;5056222;28;20079;-74
2023/05/18 11:22:50;;;;;;;8.15;2.50;;;;;;;;;;5053897;28;20041;-71
2023/05/18 11:25:27;;;;;;;8.45;2.80;;;;;;;;;;5053892;28;20123;-74
2023/05/18 11:28:02;;;;;;;5.50;2.78;;;;;;;;;;5054442;28;20067;-73
2023/05/18 11:30:32;;;;;;;4.55;2.00;;;;;;;;;;5053980;28;20082;-75
2023/05/18 11:33:11;;;;;;;5.18;2.33;;;;;;;;;;5054015;28;20403;-74
2023/05/18 11:36:08;;;;;;;39.10;3.95;;;;;;;;;;5050677;28;20077;-73
2023/05/18 11:39:01;;;;;;;6.10;2.63;;;;;;;;;;5052344;28;20033;-73
2023/05/18 11:41:28;;;;;;;6.25;3.30;;;;;;;;;;5053831;28;20067;-73
2023/05/18 11:44:15;;;;;;;7.07;2.10;;;;;;;;;;5053820;28;20045;-73
2023/05/18 11:46:59;;;;;;;8.38;2.60;;;;;;;;;;5041556;28;20096;-73
2023/05/18 11:49:35;;;;;;;7.47;2.00;;;;;;;;;;5051291;28;20159;-73
2023/05/18 11:52:20;;;;;;;5.75;3.13;;;;;;;;;;5045815;28;20479;-74
2023/05/18 11:54:55;;;;;;;8.05;2.67;;;;;;;;;;5047022;28;20111;-73
2023/05/18 11:57:33;;;;;;;5.05;1.90;;;;;;;;;;5068717;28;20041;-72
2023/05/18 12:00:10;;;;;;;9.18;2.65;;;;;;;;;;5047104;28;20054;-72
2023/05/18 12:02:42;;;;;;;10.05;2.60;;;;;;;;;;5053842;28;20134;-73
2023/05/18 12:05:09;;;;;;;4.50;2.25;;;;;;;;;;5037966;28;20041;-73
2023/05/18 12:07:36;;;;;;;7.05;3.10;;;;;;;;;;5054015;28;20025;-73
2023/05/18 12:10:11;;;;;;;6.15;3.28;;;;;;;;;;5053953;28;20028;-74
2023/05/18 12:12:38;;;;;;;8.70;3.72;;;;;;;;;;5043740;28;20045;-73
2023/05/18 12:15:06;;;;;;;11.02;2.72;;;;;;;;;;5045857;28;20029;-73
2023/05/18 12:17:44;;;;;;;6.40;2.95;;;;;;;;;;5051699;28;20509;-72
2023/05/18 12:20:17;;;;;;;7.97;2.53;;;;;;;;;;5053284;28;20267;-74
2023/05/18 12:22:48;;;;;;;6.22;2.67;;;;;;;;;;5033422;28;20072;-73
2023/05/18 12:25:15;;;;;;;7.25;2.35;;;;;;;;;;5031717;28;20544;-72
2023/05/18 12:27:42;;;;;;;7.63;2.38;;;;;;;;;;5033913;28;20013;-74
2023/05/18 12:30:15;;;;;;;7.63;2.55;;;;;;;;;;5033390;28;20041;-74
2023/05/18 12:32:51;;;;;;;4.53;2.42;;;;;;;;;;5046014;28;20033;-75
2023/05/18 12:35:24;;;;;;;5.95;2.50;;;;;;;;;;5059703;28;20029;-74
2023/05/18 12:37:51;;;;;;;8.40;2.45;;;;;;;;;;5042415;28;20033;-74
2023/05/18 12:40:18;;;;;;;5.93;2.72;;;;;;;;;;5051507;28;20121;-74
2023/05/18 12:42:54;;;;;;;6.15;2.28;;;;;;;;;;5046922;28;20036;-76
2023/05/18 12:45:26;;;;;;;7.03;2.30;;;;;;;;;;5051913;28;20035;-74
2023/05/18 12:47:53;;;;;;;9.30;3.10;;;;;;;;;;5052242;28;20033;-74
2023/05/18 12:50:25;;;;;;;11.13;2.67;;;;;;;;;;5052067;28;20035;-75
2023/05/18 12:52:51;;;;;;;5.82;2.78;;;;;;;;;;5043760;28;20048;-75
2023/05/18 12:55:20;;;;;;;5.90;2.45;;;;;;;;;;5051450;28;20075;-75
2023/05/18 12:58:14;;;;;;;6.38;2.67;;;;;;;;;;5042652;28;20085;-73
2023/05/18 13:00:43;;;;;;;8.77;2.80;;;;;;;;;;5048757;28;20040;-75
2023/05/18 13:03:10;;;;;;;10.27;2.47;;;;;;;;;;5052176;28;20071;-75
2023/05/18 13:05:37;;;;;;;11.27;4.03;;;;;;;;;;5052341;28;20158;-76
2023/05/18 13:08:03;;;;;;;10.25;2.53;;;;;;;;;;5052287;28;20040;-75
2023/05/18 13:10:33;;;;;;;7.82;2.75;;;;;;;;;;5050163;28;20443;-74
2023/05/18 13:13:16;;;;;;;7.28;2.60;;;;;;;;;;5048042;28;20040;-75
2023/05/18 13:15:42;;;;;;;7.30;2.88;;;;;;;;;;5051794;28;20039;-74
2023/05/18 13:18:10;;;;;;;5.93;2.90;;;;;;;;;;5053192;28;20033;-73
2023/05/18 13:20:49;;;;;;;9.20;2.40;;;;;;;;;;5049643;28;20483;-74
2023/05/18 13:23:20;;;;;;;8.27;2.92;;;;;;;;;;5072433;28;20108;-74
2023/05/18 13:25:46;;;;;;;5.70;2.42;;;;;;;;;;5043381;28;20112;-74
2023/05/18 13:28:13;;;;;;;8.20;2.90;;;;;;;;;;5043190;28;20112;-72
2023/05/18 13:30:41;;;;;;;5.95;2.47;;;;;;;;;;5051145;28;20487;-72
2023/05/18 13:33:07;;;;;;;7.15;3.00;;;;;;;;;;5043447;28;20075;-73
2023/05/18 13:35:37;;;;;;;6.40;3.38;;;;;;;;;;5051764;28;20060;-74
2023/05/18 13:38:03;;;;;;;9.23;3.47;;;;;;;;;;5051920;28;20028;-72
2023/05/18 13:40:29;;;;;;;5.72;2.90;;;;;;;;;;5043228;28;20570;-73
2023/05/18 13:42:55;;;;;;;9.23;3.00;;;;;;;;;;5046837;28;20136;-74
2023/05/18 13:45:21;;;;;;;11.70;3.15;;;;;;;;;;5048097;28;20027;-73
2023/05/18 13:47:52;;;;;;;5.75;2.38;;;;;;;;;;5050281;28;20033;-74
2023/05/18 13:50:19;;;;;;;5.82;2.53;;;;;;;;;;5052539;28;20127;-74
2023/05/18 13:52:46;;;;;;;8.23;2.55;;;;;;;;;;5050295;28;20029;-75
2023/05/18 13:55:12;;;;;;;5.53;2.67;;;;;;;;;;5051132;28;20029;-76
2023/05/18 13:57:39;;;;;;;6.70;2.92;;;;;;;;;;5049416;28;20028;-75
2023/05/18 14:00:12;;;;;;;6.25;3.05;;;;;;;;;;5051709;28;20406;-74
2023/05/18 14:02:42;;;;;;;7.57;2.83;;;;;;;;;;5051582;28;20431;-73
2023/05/18 14:05:09;;;;;;;5.78;2.47;;;;;;;;;;5050818;28;20491;-73
2023/05/18 14:07:39;;;;;;;8.35;2.60;;;;;;;;;;5050758;28;20021;-72
2023/05/18 14:10:07;;;;;;;8.23;2.83;;;;;;;;;;5067169;28;20048;-74
2023/05/18 14:12:33;;;;;;;5.88;2.83;;;;;;;;;;5050483;28;20566;-73
2023/05/18 14:14:59;;;;;;;6.43;2.47;;;;;;;;;;5043251;28;20047;-74
2023/05/18 14:17:28;;;;;;;5.38;2.45;;;;;;;;;;5049684;28;20025;-75
2023/05/18 14:19:54;;;;;;;4.93;2.30;;;;;;;;;;5042370;28;20052;-73
2023/05/18 14:22:20;;;;;;;4.82;2.47;;;;;;;;;;5050722;28;20103;-73
2023/05/18 14:24:47;;;;;;;6.18;2.20;;;;;;;;;;5053984;28;20083;-73
2023/05/18 14:27:13;;;;;;;4.75;2.30;;;;;;;;;;5054084;28;20056;-74
2023/05/18 14:29:38;;;;;;;6.32;2.63;;;;;;;;;;5054047;28;20056;-72
2023/05/18 14:32:04;;;;;;;5.88;2.30;;;;;;;;;;5052102;28;20021;-73
2023/05/18 14:34:30;;;;;;;11.88;2.10;;;;;;;;;;5051072;28;20118;-73
2023/05/18 14:36:56;;;;;;;5.50;2.42;;;;;;;;;;5054170;28;20021;-75
2023/05/18 14:39:21;;;;;;;5.47;2.03;;;;;;;;;;5054282;28;20028;-74
2023/05/18 14:41:47;;;;;;;5.53;2.15;;;;;;;;;;5046028;28;20027;-73
2023/05/18 14:44:13;;;;;;;4.10;1.70;;;;;;;;;;5053152;28;20040;-73
2023/05/18 14:46:39;;;;;;;6.10;2.17;;;;;;;;;;5053114;28;20040;-73
2023/05/18 14:49:06;;;;;;;2.53;1.77;;;;;;;;;;5069095;28;20045;-73
2023/05/18 14:51:31;;;;;;;9.68;2.40;;;;;;;;;;5053717;28;20025;-72